Aeroporto :
LOGIN :

Iscrizione | Disclaimer

   EN    FR    IT 

 










Sommario :    VFR   VFR Marginale   IFR   IFR Intensivo   IFR Molto Intensivo
Visibilità : 
Base nubi : 
>= 8 km
>= 3000ft
5 / 8 km
1000 / 3000 ft
1500m / 5 km
500 / 1000 ft
800 / 1500m
200 / 500 ft
< 800m
< 200 ft
Simboli :   Temporali  Nebbia  Neve Forte  Precipitazioni Forti  Vento > 20 kt
SIGMETs :   Varie  Temporali  Ghiacco  Turbolenza  Onda orograficha  Ceneri Vulcaniche






- Altitudine del aeroporto : 461 ft
- Codice IATA : WIE


ETOU - Wiesbaden Army

ULTIMO METAR :
  • 191056Z AUTO 18008KT 9999 FEW012 SCT060 SCT070 BKN190 15/12 A2978 RMK AO2 SLP087 T01460117 $

METARs OBSOLETI :
  • 190956Z AUTO 19007KT 9999 BKN012 OVC048 14/12 A2980 RMK AO2 CIG 011 RWY07 SLP094 T01360116 $
  • 190856Z AUTO 18005KT 9999 BKN011 OVC018 13/11 A2980 RMK AO2 CIG 010 RWY07 SLP094 60000 T01300112 50002 $

TAF AMD TAF ETOU
Valido dal 18 a 16 ore il 19 a 17 ore UTC


1816/1917 19009KT 9999 SCT030 BKN060 QNH2984INS
TEMPO 1816/1817 20015G25KT
BECMG 1822/1823 18006KT 9999 BKN030 OVC050 QNH2972INS
TEMPO 1903/1906 6000 -SHRA BR TX16/1913Z TN12/1901Z LAST NO AMDS AFT 18/1700 NEXT 21/0300



MetMap, La meteo Aeronautica in un colpo d'occhio ! - Copyright ORBIFLY Dicembre 2007 - Disclaimer

ORBIFLY MET'MAP TEAM :

Programmazione e sviluppo : Alexandra Zaïnal
Concezione e sviluppo : Baudouin d'Aumeries
Co-Programmazione e sviluppo : Marc-Olivier Méhu
Supporto tecnico e logistico : Manuel Goepfert
Aiuto per la traduzione : Arnaldo La Scala

Contatto : metmap@orbifly.com




FONTI E CREDITI :

   NOAA